sensor_id;sensor_type;location;lat;lon;timestamp;pressure;altitude;pressure_sealevel;temperature;humidity
42761;BME280;31672;47.638;19.026;2024-01-16T00:02:03;98896.91;;;-0.29;92.25
42761;BME280;31672;47.638;19.026;2024-01-16T00:07:06;98912.59;;;-0.19;91.95
42761;BME280;31672;47.638;19.026;2024-01-16T00:12:14;98921.19;;;-0.07;91.73
42761;BME280;31672;47.638;19.026;2024-01-16T00:17:18;98917.50;;;-0.05;91.63
42761;BME280;31672;47.638;19.026;2024-01-16T00:22:22;98931.09;;;-0.01;91.32
42761;BME280;31672;47.638;19.026;2024-01-16T00:27:34;98932.06;;;-0.02;91.66
42761;BME280;31672;47.638;19.026;2024-01-16T00:32:44;98938.25;;;-0.03;91.49
42761;BME280;31672;47.638;19.026;2024-01-16T00:37:48;98966.28;;;-0.05;92.33
42761;BME280;31672;47.638;19.026;2024-01-16T00:42:52;98966.00;;;-0.02;92.80
42761;BME280;31672;47.638;19.026;2024-01-16T00:47:56;98977.72;;;0.04;92.60
42761;BME280;31672;47.638;19.026;2024-01-16T00:53:00;98973.25;;;0.15;91.11
42761;BME280;31672;47.638;19.026;2024-01-16T00:58:05;98987.69;;;0.19;89.97
42761;BME280;31672;47.638;19.026;2024-01-16T01:03:08;98989.34;;;0.20;89.05
42761;BME280;31672;47.638;19.026;2024-01-16T01:08:12;98998.97;;;0.20;88.57
42761;BME280;31672;47.638;19.026;2024-01-16T01:13:16;99004.06;;;0.21;88.11
42761;BME280;31672;47.638;19.026;2024-01-16T01:18:20;99009.28;;;0.21;88.29
42761;BME280;31672;47.638;19.026;2024-01-16T01:23:24;99013.31;;;0.25;87.66
42761;BME280;31672;47.638;19.026;2024-01-16T01:28:28;99018.25;;;0.29;85.79
42761;BME280;31672;47.638;19.026;2024-01-16T01:33:32;99019.22;;;0.28;84.66
42761;BME280;31672;47.638;19.026;2024-01-16T01:38:37;99027.34;;;0.24;83.46
42761;BME280;31672;47.638;19.026;2024-01-16T01:43:41;99026.63;;;0.22;82.65
42761;BME280;31672;47.638;19.026;2024-01-16T01:48:48;99038.31;;;0.18;82.81
42761;BME280;31672;47.638;19.026;2024-01-16T01:53:55;99043.09;;;0.13;83.14
42761;BME280;31672;47.638;19.026;2024-01-16T01:59:00;99049.28;;;0.12;82.85
42761;BME280;31672;47.638;19.026;2024-01-16T02:04:09;99054.88;;;0.08;83.01
42761;BME280;31672;47.638;19.026;2024-01-16T02:09:25;99062.00;;;0.06;83.16
42761;BME280;31672;47.638;19.026;2024-01-16T02:14:32;99061.44;;;0.02;82.57
42761;BME280;31672;47.638;19.026;2024-01-16T02:19:46;99080.41;;;0.04;81.77
42761;BME280;31672;47.638;19.026;2024-01-16T02:24:50;99079.03;;;0.00;81.50
42761;BME280;31672;47.638;19.026;2024-01-16T02:29:59;99093.34;;;0.06;82.33
42761;BME280;31672;47.638;19.026;2024-01-16T02:35:09;99102.72;;;0.08;82.89
42761;BME280;31672;47.638;19.026;2024-01-16T02:40:15;99097.75;;;0.05;83.28
42761;BME280;31672;47.638;19.026;2024-01-16T02:45:22;99097.63;;;0.07;84.00
42761;BME280;31672;47.638;19.026;2024-01-16T02:50:26;99099.41;;;0.06;84.81
42761;BME280;31672;47.638;19.026;2024-01-16T02:55:34;99113.63;;;0.13;84.80
42761;BME280;31672;47.638;19.026;2024-01-16T03:00:39;99102.44;;;0.11;84.38
42761;BME280;31672;47.638;19.026;2024-01-16T03:05:43;99097.75;;;0.05;83.89
42761;BME280;31672;47.638;19.026;2024-01-16T03:10:50;99111.31;;;-0.01;83.29
42761;BME280;31672;47.638;19.026;2024-01-16T03:15:54;99122.16;;;-0.06;83.35
42761;BME280;31672;47.638;19.026;2024-01-16T03:20:59;99135.81;;;-0.13;83.52
42761;BME280;31672;47.638;19.026;2024-01-16T03:26:04;99135.63;;;-0.21;83.02
42761;BME280;31672;47.638;19.026;2024-01-16T03:31:08;99148.56;;;-0.20;83.11
42761;BME280;31672;47.638;19.026;2024-01-16T03:36:14;99147.88;;;-0.22;82.69
42761;BME280;31672;47.638;19.026;2024-01-16T03:41:19;99153.91;;;-0.21;82.13
42761;BME280;31672;47.638;19.026;2024-01-16T03:46:24;99161.47;;;-0.18;80.93
42761;BME280;31672;47.638;19.026;2024-01-16T03:51:27;99164.81;;;-0.16;79.86
42761;BME280;31672;47.638;19.026;2024-01-16T03:56:31;99166.47;;;-0.15;79.09
42761;BME280;31672;47.638;19.026;2024-01-16T04:01:37;99183.16;;;-0.07;78.34
42761;BME280;31672;47.638;19.026;2024-01-16T04:06:48;99188.00;;;-0.02;77.77
42761;BME280;31672;47.638;19.026;2024-01-16T04:11:51;99190.13;;;0.04;76.92
42761;BME280;31672;47.638;19.026;2024-01-16T04:16:56;99207.78;;;0.12;76.06
42761;BME280;31672;47.638;19.026;2024-01-16T04:22:01;99191.28;;;0.11;75.21
42761;BME280;31672;47.638;19.026;2024-01-16T04:27:05;99197.09;;;0.15;74.17
42761;BME280;31672;47.638;19.026;2024-01-16T04:32:09;99206.94;;;0.11;74.42
42761;BME280;31672;47.638;19.026;2024-01-16T04:37:13;99221.47;;;0.04;74.18
42761;BME280;31672;47.638;19.026;2024-01-16T04:42:17;99231.53;;;0.09;73.70
42761;BME280;31672;47.638;19.026;2024-01-16T04:47:24;99232.50;;;0.08;73.21
42761;BME280;31672;47.638;19.026;2024-01-16T04:52:29;99243.09;;;0.06;73.14
42761;BME280;31672;47.638;19.026;2024-01-16T04:57:33;99249.75;;;-0.01;73.31
42761;BME280;31672;47.638;19.026;2024-01-16T05:02:36;99247.84;;;0.01;72.79
42761;BME280;31672;47.638;19.026;2024-01-16T05:07:41;99266.97;;;0.02;72.80
42761;BME280;31672;47.638;19.026;2024-01-16T05:12:44;99281.69;;;0.03;72.73
42761;BME280;31672;47.638;19.026;2024-01-16T05:17:48;99282.75;;;0.00;72.33
42761;BME280;31672;47.638;19.026;2024-01-16T05:22:51;99293.91;;;0.02;71.86
42761;BME280;31672;47.638;19.026;2024-01-16T05:27:56;99293.78;;;0.04;71.88
42761;BME280;31672;47.638;19.026;2024-01-16T05:32:59;99311.22;;;0.03;71.41
42761;BME280;31672;47.638;19.026;2024-01-16T05:38:04;99319.06;;;0.03;70.71
42761;BME280;31672;47.638;19.026;2024-01-16T05:43:08;99324.56;;;0.00;70.97
42761;BME280;31672;47.638;19.026;2024-01-16T05:48:11;99336.53;;;-0.09;70.94
42761;BME280;31672;47.638;19.026;2024-01-16T05:53:15;99345.13;;;-0.18;71.22
42761;BME280;31672;47.638;19.026;2024-01-16T05:58:19;99338.69;;;-0.25;71.80
42761;BME280;31672;47.638;19.026;2024-01-16T06:03:22;99346.66;;;-0.38;72.28
42761;BME280;31672;47.638;19.026;2024-01-16T06:08:26;99351.66;;;-0.46;72.32
42761;BME280;31672;47.638;19.026;2024-01-16T06:13:30;99370.03;;;-0.47;72.47
42761;BME280;31672;47.638;19.026;2024-01-16T06:18:35;99371.56;;;-0.56;72.55
42761;BME280;31672;47.638;19.026;2024-01-16T06:23:39;99380.34;;;-0.57;72.43
42761;BME280;31672;47.638;19.026;2024-01-16T06:28:43;99392.44;;;-0.56;72.07
42761;BME280;31672;47.638;19.026;2024-01-16T06:33:46;99396.72;;;-0.55;71.53
42761;BME280;31672;47.638;19.026;2024-01-16T06:38:50;99393.53;;;-0.59;70.92
42761;BME280;31672;47.638;19.026;2024-01-16T06:43:53;99422.09;;;-0.57;70.62
42761;BME280;31672;47.638;19.026;2024-01-16T06:48:57;99418.66;;;-0.58;70.59
42761;BME280;31672;47.638;19.026;2024-01-16T06:54:00;99428.75;;;-0.53;69.99
42761;BME280;31672;47.638;19.026;2024-01-16T06:59:04;99442.91;;;-0.33;70.37
42761;BME280;31672;47.638;19.026;2024-01-16T07:04:11;99454.19;;;0.01;68.04
42761;BME280;31672;47.638;19.026;2024-01-16T07:09:17;99454.16;;;0.23;66.34
42761;BME280;31672;47.638;19.026;2024-01-16T07:14:23;99457.25;;;0.40;65.67
42761;BME280;31672;47.638;19.026;2024-01-16T07:19:27;99462.59;;;0.49;65.03
42761;BME280;31672;47.638;19.026;2024-01-16T07:24:30;99466.19;;;0.80;64.34
42761;BME280;31672;47.638;19.026;2024-01-16T07:29:34;99478.16;;;1.26;62.49
42761;BME280;31672;47.638;19.026;2024-01-16T07:34:38;99492.16;;;1.57;61.33
42761;BME280;31672;47.638;19.026;2024-01-16T07:39:41;99492.84;;;1.80;60.13
42761;BME280;31672;47.638;19.026;2024-01-16T07:44:45;99506.56;;;1.94;58.24
42761;BME280;31672;47.638;19.026;2024-01-16T07:49:49;99517.78;;;1.75;58.36
42761;BME280;31672;47.638;19.026;2024-01-16T07:54:52;99533.31;;;1.55;58.52
42761;BME280;31672;47.638;19.026;2024-01-16T07:59:56;99532.81;;;1.41;59.07
42761;BME280;31672;47.638;19.026;2024-01-16T08:05:00;99544.88;;;1.32;59.16
42761;BME280;31672;47.638;19.026;2024-01-16T08:10:04;99549.66;;;1.27;58.52
42761;BME280;31672;47.638;19.026;2024-01-16T08:15:08;99556.78;;;1.25;59.40
42761;BME280;31672;47.638;19.026;2024-01-16T08:20:12;99559.63;;;1.33;59.32
42761;BME280;31672;47.638;19.026;2024-01-16T08:25:16;99562.13;;;1.34;58.66
42761;BME280;31672;47.638;19.026;2024-01-16T08:30:20;99571.63;;;1.36;58.66
42761;BME280;31672;47.638;19.026;2024-01-16T08:35:25;99576.22;;;1.43;58.69
42761;BME280;31672;47.638;19.026;2024-01-16T08:40:29;99583.44;;;1.62;58.41
42761;BME280;31672;47.638;19.026;2024-01-16T08:45:32;99577.28;;;1.73;58.09
42761;BME280;31672;47.638;19.026;2024-01-16T08:50:36;99579.41;;;1.79;57.81
42761;BME280;31672;47.638;19.026;2024-01-16T08:55:40;99584.03;;;1.86;57.51
42761;BME280;31672;47.638;19.026;2024-01-16T09:00:44;99591.44;;;1.81;56.99
42761;BME280;31672;47.638;19.026;2024-01-16T09:05:47;99609.28;;;1.87;57.13
42761;BME280;31672;47.638;19.026;2024-01-16T09:10:51;99608.31;;;1.88;57.00
42761;BME280;31672;47.638;19.026;2024-01-16T09:15:55;99615.59;;;2.06;57.23
42761;BME280;31672;47.638;19.026;2024-01-16T09:20:58;99621.41;;;2.30;55.91
42761;BME280;31672;47.638;19.026;2024-01-16T09:26:02;99617.38;;;2.87;56.69
42761;BME280;31672;47.638;19.026;2024-01-16T09:31:06;99614.47;;;3.31;53.13
42761;BME280;31672;47.638;19.026;2024-01-16T09:36:10;99613.28;;;3.73;51.49
42761;BME280;31672;47.638;19.026;2024-01-16T09:41:13;99607.13;;;4.21;49.53
42761;BME280;31672;47.638;19.026;2024-01-16T09:46:17;99617.09;;;4.18;48.62
42761;BME280;31672;47.638;19.026;2024-01-16T09:51:24;99613.66;;;4.08;49.17
42761;BME280;31672;47.638;19.026;2024-01-16T09:56:28;99611.75;;;3.90;48.66
42761;BME280;31672;47.638;19.026;2024-01-16T10:01:34;99611.72;;;4.00;48.53
42761;BME280;31672;47.638;19.026;2024-01-16T10:06:39;99618.94;;;3.69;48.91
42761;BME280;31672;47.638;19.026;2024-01-16T10:11:45;99613.81;;;3.67;49.24
42761;BME280;31672;47.638;19.026;2024-01-16T10:17:03;99618.78;;;3.70;48.59
42761;BME280;31672;47.638;19.026;2024-01-16T10:22:09;99608.41;;;3.49;48.72
42761;BME280;31672;47.638;19.026;2024-01-16T10:27:16;99615.16;;;3.33;48.99
42761;BME280;31672;47.638;19.026;2024-01-16T10:32:32;99618.97;;;3.09;49.67
42761;BME280;31672;47.638;19.026;2024-01-16T10:43:04;99615.94;;;3.04;50.31
42761;BME280;31672;47.638;19.026;2024-01-16T10:48:08;99603.78;;;3.03;49.43
42761;BME280;31672;47.638;19.026;2024-01-16T10:53:14;99621.47;;;3.01;49.86
42761;BME280;31672;47.638;19.026;2024-01-16T10:58:23;99624.31;;;3.48;48.55
42761;BME280;31672;47.638;19.026;2024-01-16T11:08:48;99617.50;;;4.33;46.47
42761;BME280;31672;47.638;19.026;2024-01-16T11:13:55;99603.06;;;4.46;46.29
42761;BME280;31672;47.638;19.026;2024-01-16T11:18:59;99607.66;;;4.72;45.33
42761;BME280;31672;47.638;19.026;2024-01-16T11:24:23;99606.41;;;4.39;45.61
42761;BME280;31672;47.638;19.026;2024-01-16T11:39:44;99607.16;;;3.44;47.55
42761;BME280;31672;47.638;19.026;2024-01-16T11:44:49;99605.63;;;3.41;48.09
42761;BME280;31672;47.638;19.026;2024-01-16T11:50:13;99599.16;;;3.45;47.73
42761;BME280;31672;47.638;19.026;2024-01-16T12:00:56;99596.25;;;3.58;46.71
42761;BME280;31672;47.638;19.026;2024-01-16T12:06:02;99602.75;;;3.44;46.39
42761;BME280;31672;47.638;19.026;2024-01-16T12:11:07;99603.41;;;3.27;46.49
42761;BME280;31672;47.638;19.026;2024-01-16T12:16:12;99599.38;;;3.23;46.57
42761;BME280;31672;47.638;19.026;2024-01-16T12:21:15;99587.25;;;3.32;46.72
42761;BME280;31672;47.638;19.026;2024-01-16T12:26:21;99582.97;;;3.40;45.93
42761;BME280;31672;47.638;19.026;2024-01-16T12:31:29;99589.91;;;3.61;45.45
42761;BME280;31672;47.638;19.026;2024-01-16T12:36:33;99594.19;;;3.81;44.76
42761;BME280;31672;47.638;19.026;2024-01-16T12:41:44;99581.59;;;3.75;43.73
42761;BME280;31672;47.638;19.026;2024-01-16T12:46:56;99589.75;;;3.62;43.74
42761;BME280;31672;47.638;19.026;2024-01-16T12:52:33;99591.13;;;3.37;44.34
42761;BME280;31672;47.638;19.026;2024-01-16T12:57:36;99601.03;;;3.14;44.50
42761;BME280;31672;47.638;19.026;2024-01-16T13:02:40;99619.47;;;2.93;45.08
42761;BME280;31672;47.638;19.026;2024-01-16T13:07:44;99613.09;;;2.77;45.62
42761;BME280;31672;47.638;19.026;2024-01-16T13:12:48;99610.94;;;2.61;45.69
42761;BME280;31672;47.638;19.026;2024-01-16T13:17:51;99623.16;;;2.51;45.92
42761;BME280;31672;47.638;19.026;2024-01-16T13:22:55;99626.00;;;2.38;46.51
42761;BME280;31672;47.638;19.026;2024-01-16T13:27:58;99625.81;;;2.30;46.51
42761;BME280;31672;47.638;19.026;2024-01-16T13:33:03;99624.16;;;2.29;46.85
42761;BME280;31672;47.638;19.026;2024-01-16T13:38:08;99620.72;;;2.28;46.86
42761;BME280;31672;47.638;19.026;2024-01-16T13:43:12;99630.50;;;2.26;47.15
42761;BME280;31672;47.638;19.026;2024-01-16T13:48:16;99629.53;;;2.27;46.47
42761;BME280;31672;47.638;19.026;2024-01-16T13:53:21;99640.72;;;2.29;46.72
42761;BME280;31672;47.638;19.026;2024-01-16T13:58:25;99627.41;;;2.21;46.71
42761;BME280;31672;47.638;19.026;2024-01-16T14:03:28;99640.41;;;2.23;47.13
42761;BME280;31672;47.638;19.026;2024-01-16T14:08:33;99629.66;;;2.26;46.78
42761;BME280;31672;47.638;19.026;2024-01-16T14:13:36;99629.28;;;2.30;46.39
42761;BME280;31672;47.638;19.026;2024-01-16T14:18:40;99633.56;;;2.31;46.17
42761;BME280;31672;47.638;19.026;2024-01-16T14:23:44;99635.03;;;2.24;46.03
42761;BME280;31672;47.638;19.026;2024-01-16T14:28:47;99638.88;;;2.20;46.35
42761;BME280;31672;47.638;19.026;2024-01-16T14:33:53;99642.25;;;2.11;46.49
42761;BME280;31672;47.638;19.026;2024-01-16T14:38:56;99651.47;;;2.05;46.71
42761;BME280;31672;47.638;19.026;2024-01-16T14:44:00;99662.69;;;1.96;46.97
42761;BME280;31672;47.638;19.026;2024-01-16T14:49:03;99665.50;;;1.83;47.40
42761;BME280;31672;47.638;19.026;2024-01-16T14:54:07;99668.16;;;1.72;47.58
42761;BME280;31672;47.638;19.026;2024-01-16T14:59:12;99668.66;;;1.66;47.88
42761;BME280;31672;47.638;19.026;2024-01-16T15:04:19;99656.88;;;1.60;48.19
42761;BME280;31672;47.638;19.026;2024-01-16T15:09:22;99661.66;;;1.55;48.38
42761;BME280;31672;47.638;19.026;2024-01-16T15:14:25;99673.84;;;1.45;48.32
42761;BME280;31672;47.638;19.026;2024-01-16T15:19:29;99673.03;;;1.33;48.68
42761;BME280;31672;47.638;19.026;2024-01-16T15:24:33;99668.03;;;1.19;49.03
42761;BME280;31672;47.638;19.026;2024-01-16T15:29:36;99676.00;;;1.06;49.06
42761;BME280;31672;47.638;19.026;2024-01-16T15:34:40;99684.13;;;0.92;50.03
42761;BME280;31672;47.638;19.026;2024-01-16T15:39:45;99692.78;;;0.82;50.08
42761;BME280;31672;47.638;19.026;2024-01-16T15:44:50;99687.53;;;0.70;50.81
42761;BME280;31672;47.638;19.026;2024-01-16T15:49:56;99696.09;;;0.61;51.27
42761;BME280;31672;47.638;19.026;2024-01-16T15:55:01;99699.41;;;0.52;51.43
42761;BME280;31672;47.638;19.026;2024-01-16T16:00:06;99708.06;;;0.41;51.74
42761;BME280;31672;47.638;19.026;2024-01-16T16:05:13;99709.72;;;0.31;52.26
42761;BME280;31672;47.638;19.026;2024-01-16T16:10:17;99718.34;;;0.20;52.52
42761;BME280;31672;47.638;19.026;2024-01-16T16:15:21;99724.47;;;0.08;52.80
42761;BME280;31672;47.638;19.026;2024-01-16T16:20:25;99732.25;;;-0.03;53.49
42761;BME280;31672;47.638;19.026;2024-01-16T16:25:29;99736.81;;;-0.18;53.98
42761;BME280;31672;47.638;19.026;2024-01-16T16:30:33;99745.09;;;-0.24;55.00
42761;BME280;31672;47.638;19.026;2024-01-16T16:35:38;99753.03;;;-0.25;55.82
42761;BME280;31672;47.638;19.026;2024-01-16T16:40:42;99771.22;;;-0.24;55.66
42761;BME280;31672;47.638;19.026;2024-01-16T16:45:46;99772.03;;;-0.23;55.85
42761;BME280;31672;47.638;19.026;2024-01-16T16:50:52;99781.31;;;-0.19;55.88
42761;BME280;31672;47.638;19.026;2024-01-16T16:55:56;99786.31;;;-0.16;55.49
42761;BME280;31672;47.638;19.026;2024-01-16T17:01:00;99789.88;;;-0.17;55.56
42761;BME280;31672;47.638;19.026;2024-01-16T17:06:05;99785.44;;;-0.28;55.33
42761;BME280;31672;47.638;19.026;2024-01-16T17:11:12;99774.28;;;-0.43;56.03
42761;BME280;31672;47.638;19.026;2024-01-16T17:16:17;99780.47;;;-0.57;56.31
42761;BME280;31672;47.638;19.026;2024-01-16T17:21:25;99786.84;;;-0.73;56.62
42761;BME280;31672;47.638;19.026;2024-01-16T17:26:29;99802.53;;;-0.86;57.30
42761;BME280;31672;47.638;19.026;2024-01-16T17:31:34;99798.44;;;-0.90;57.80
42761;BME280;31672;47.638;19.026;2024-01-16T17:36:38;99789.28;;;-0.96;57.47
42761;BME280;31672;47.638;19.026;2024-01-16T17:41:47;99791.56;;;-1.04;57.99
42761;BME280;31672;47.638;19.026;2024-01-16T17:46:50;99792.41;;;-1.16;58.37
42761;BME280;31672;47.638;19.026;2024-01-16T17:51:54;99799.06;;;-1.25;59.07
42761;BME280;31672;47.638;19.026;2024-01-16T17:56:58;99792.09;;;-1.12;59.17
42761;BME280;31672;47.638;19.026;2024-01-16T18:02:02;99798.66;;;-1.06;59.54
42761;BME280;31672;47.638;19.026;2024-01-16T18:07:06;99791.47;;;-0.90;59.67
42761;BME280;31672;47.638;19.026;2024-01-16T18:12:10;99797.00;;;-0.82;59.59
42761;BME280;31672;47.638;19.026;2024-01-16T18:17:16;99787.41;;;-0.81;59.66
42761;BME280;31672;47.638;19.026;2024-01-16T18:22:22;99785.72;;;-0.82;60.11
42761;BME280;31672;47.638;19.026;2024-01-16T18:27:26;99789.72;;;-1.02;60.58
42761;BME280;31672;47.638;19.026;2024-01-16T18:32:30;99785.63;;;-1.31;60.94
42761;BME280;31672;47.638;19.026;2024-01-16T18:37:34;99787.63;;;-1.62;61.73
42761;BME280;31672;47.638;19.026;2024-01-16T18:42:39;99785.34;;;-1.94;62.72
42761;BME280;31672;47.638;19.026;2024-01-16T18:47:43;99788.56;;;-2.17;62.81
42761;BME280;31672;47.638;19.026;2024-01-16T18:52:48;99776.94;;;-2.38;63.67
42761;BME280;31672;47.638;19.026;2024-01-16T18:57:52;99793.69;;;-2.57;64.32
42761;BME280;31672;47.638;19.026;2024-01-16T19:03:03;99788.41;;;-2.70;65.45
42761;BME280;31672;47.638;19.026;2024-01-16T19:08:06;99792.59;;;-2.81;65.73
42761;BME280;31672;47.638;19.026;2024-01-16T19:13:11;99787.94;;;-2.90;66.69
42761;BME280;31672;47.638;19.026;2024-01-16T19:18:17;99797.19;;;-3.01;67.12
42761;BME280;31672;47.638;19.026;2024-01-16T19:23:21;99791.91;;;-3.13;67.43
42761;BME280;31672;47.638;19.026;2024-01-16T19:28:28;99790.59;;;-3.20;69.09
42761;BME280;31672;47.638;19.026;2024-01-16T19:33:37;99802.38;;;-3.29;69.86
42761;BME280;31672;47.638;19.026;2024-01-16T19:38:43;99796.97;;;-3.40;71.11
42761;BME280;31672;47.638;19.026;2024-01-16T19:43:50;99801.75;;;-3.48;70.96
42761;BME280;31672;47.638;19.026;2024-01-16T19:48:55;99798.97;;;-3.60;71.09
42761;BME280;31672;47.638;19.026;2024-01-16T19:53:59;99795.22;;;-3.70;72.06
42761;BME280;31672;47.638;19.026;2024-01-16T19:59:05;99796.56;;;-3.79;73.27
42761;BME280;31672;47.638;19.026;2024-01-16T20:04:08;99800.66;;;-3.74;73.75
42761;BME280;31672;47.638;19.026;2024-01-16T20:09:13;99792.19;;;-3.78;74.32
42761;BME280;31672;47.638;19.026;2024-01-16T20:14:19;99789.06;;;-3.83;75.35
42761;BME280;31672;47.638;19.026;2024-01-16T20:19:23;99793.66;;;-3.88;75.89
42761;BME280;31672;47.638;19.026;2024-01-16T20:24:27;99796.50;;;-3.93;76.49
42761;BME280;31672;47.638;19.026;2024-01-16T20:29:32;99800.38;;;-4.00;76.79
42761;BME280;31672;47.638;19.026;2024-01-16T20:34:36;99808.25;;;-4.01;77.93
42761;BME280;31672;47.638;19.026;2024-01-16T20:39:41;99809.44;;;-4.07;77.55
42761;BME280;31672;47.638;19.026;2024-01-16T20:44:45;99815.78;;;-4.13;77.78
42761;BME280;31672;47.638;19.026;2024-01-16T20:49:48;99809.25;;;-4.20;78.41
42761;BME280;31672;47.638;19.026;2024-01-16T20:54:53;99825.09;;;-4.24;78.95
42761;BME280;31672;47.638;19.026;2024-01-16T20:59:57;99826.84;;;-4.25;79.74
42761;BME280;31672;47.638;19.026;2024-01-16T21:05:01;99825.31;;;-4.29;79.89
42761;BME280;31672;47.638;19.026;2024-01-16T21:10:05;99823.47;;;-4.27;80.68
42761;BME280;31672;47.638;19.026;2024-01-16T21:15:09;99835.03;;;-4.17;81.48
42761;BME280;31672;47.638;19.026;2024-01-16T21:20:13;99822.16;;;-4.18;81.74
42761;BME280;31672;47.638;19.026;2024-01-16T21:25:21;99821.38;;;-4.20;81.21
42761;BME280;31672;47.638;19.026;2024-01-16T21:30:26;99827.19;;;-4.31;81.44
42761;BME280;31672;47.638;19.026;2024-01-16T21:35:30;99820.63;;;-4.38;82.29
42761;BME280;31672;47.638;19.026;2024-01-16T21:40:33;99827.84;;;-4.43;83.15
42761;BME280;31672;47.638;19.026;2024-01-16T21:45:37;99827.47;;;-4.53;83.28
42761;BME280;31672;47.638;19.026;2024-01-16T21:50:41;99828.88;;;-4.63;83.66
42761;BME280;31672;47.638;19.026;2024-01-16T21:55:46;99825.13;;;-4.73;83.81
42761;BME280;31672;47.638;19.026;2024-01-16T22:00:49;99821.41;;;-4.85;84.19
42761;BME280;31672;47.638;19.026;2024-01-16T22:05:53;99815.94;;;-4.96;84.24
42761;BME280;31672;47.638;19.026;2024-01-16T22:11:00;99819.81;;;-5.05;85.17
42761;BME280;31672;47.638;19.026;2024-01-16T22:16:05;99818.63;;;-5.15;85.53
42761;BME280;31672;47.638;19.026;2024-01-16T22:21:08;99806.06;;;-5.23;86.44
42761;BME280;31672;47.638;19.026;2024-01-16T22:26:12;99812.38;;;-5.28;86.90
42761;BME280;31672;47.638;19.026;2024-01-16T22:31:16;99805.00;;;-5.36;87.61
42761;BME280;31672;47.638;19.026;2024-01-16T22:36:21;99794.13;;;-5.43;88.85
42761;BME280;31672;47.638;19.026;2024-01-16T22:41:25;99783.31;;;-5.51;88.92
42761;BME280;31672;47.638;19.026;2024-01-16T22:46:31;99767.38;;;-5.60;88.79
42761;BME280;31672;47.638;19.026;2024-01-16T22:51:36;99771.41;;;-5.72;89.37
42761;BME280;31672;47.638;19.026;2024-01-16T22:56:40;99771.63;;;-5.77;90.24
42761;BME280;31672;47.638;19.026;2024-01-16T23:01:47;99775.31;;;-5.81;90.45
42761;BME280;31672;47.638;19.026;2024-01-16T23:06:50;99775.66;;;-5.88;91.29
42761;BME280;31672;47.638;19.026;2024-01-16T23:11:54;99764.88;;;-5.97;91.85
42761;BME280;31672;47.638;19.026;2024-01-16T23:16:58;99761.84;;;-6.05;92.42
42761;BME280;31672;47.638;19.026;2024-01-16T23:22:01;99758.56;;;-6.08;92.95
42761;BME280;31672;47.638;19.026;2024-01-16T23:27:05;99740.75;;;-6.14;93.17
42761;BME280;31672;47.638;19.026;2024-01-16T23:32:11;99752.16;;;-6.18;93.83
42761;BME280;31672;47.638;19.026;2024-01-16T23:37:15;99743.63;;;-6.21;95.15
42761;BME280;31672;47.638;19.026;2024-01-16T23:42:20;99727.34;;;-6.23;95.69
42761;BME280;31672;47.638;19.026;2024-01-16T23:47:24;99731.69;;;-6.23;96.21
42761;BME280;31672;47.638;19.026;2024-01-16T23:52:28;99724.78;;;-6.23;96.90
42761;BME280;31672;47.638;19.026;2024-01-16T23:57:31;99711.06;;;-6.25;97.28
